Time;durP1;ratioP1;P1;durP2;ratioP2;P2;SDS_P1;SDS_P2;PMS_P1;PMS_P2;Temp;Humidity;BMP_temperature;BMP_pressure;BME280_temperature;BME280_humidity;BME280_pressure;Samples;Min_cycle;Max_cycle;Signal;HPM_P1;HPM_P2
2022/04/25 00:00:05;;;;;;;8.30;7.20;;;;;;;8.61;86.31;99369.41;1720449;82;21063;-75
2022/04/25 00:02:36;;;;;;;9.77;8.07;;;;;;;8.61;86.38;99370.25;1729732;82;21020;-76
2022/04/25 00:05:03;;;;;;;8.67;7.80;;;;;;;8.63;86.47;99366.28;1718155;82;21145;-75
2022/04/25 00:07:30;;;;;;;9.80;8.20;;;;;;;8.63;86.51;99364.98;1726937;82;20992;-75
2022/04/25 00:09:57;;;;;;;9.47;8.10;;;;;;;8.64;86.55;99369.27;1728638;82;21114;-75
2022/04/25 00:12:24;;;;;;;10.67;8.87;;;;;;;8.65;86.64;99370.98;1728621;82;21024;-76
2022/04/25 00:14:51;;;;;;;12.47;9.50;;;;;;;8.66;86.65;99367.44;1729746;82;21074;-76
2022/04/25 00:17:18;;;;;;;11.30;9.27;;;;;;;8.66;86.68;99363.06;1727275;82;22135;-76
2022/04/25 00:19:45;;;;;;;11.90;9.30;;;;;;;8.67;86.69;99362.16;1730229;82;21064;-75
2022/04/25 00:22:13;;;;;;;10.47;9.30;;;;;;;8.68;86.75;99368.23;1729741;82;21028;-76
2022/04/25 00:24:41;;;;;;;12.03;9.10;;;;;;;8.69;86.74;99361.61;1733362;82;21005;-75
2022/04/25 00:27:08;;;;;;;9.63;8.37;;;;;;;8.69;86.80;99370.75;1730148;82;21021;-76
2022/04/25 00:29:36;;;;;;;14.93;10.17;;;;;;;8.71;86.92;99367.63;1731803;82;21143;-76
2022/04/25 00:32:04;;;;;;;12.60;10.60;;;;;;;8.72;86.94;99372.38;1730476;82;21541;-76
2022/04/25 00:34:31;;;;;;;14.57;11.70;;;;;;;8.71;87.04;99376.77;1729079;82;21541;-76
2022/04/25 00:36:58;;;;;;;15.60;12.50;;;;;;;8.72;87.03;99376.30;1730360;82;21039;-75
2022/04/25 00:39:27;;;;;;;16.60;13.20;;;;;;;8.70;86.95;99376.39;1729343;82;21021;-76
2022/04/25 00:41:57;;;;;;;15.90;12.83;;;;;;;8.69;86.84;99378.59;1731586;82;21298;-76
2022/04/25 00:44:24;;;;;;;17.25;12.98;;;;;;;8.67;86.72;99379.14;1728558;82;21039;-75
2022/04/25 00:46:55;;;;;;;17.00;14.03;;;;;;;8.63;86.61;99381.48;1734212;82;21041;-75
2022/04/25 00:49:23;;;;;;;;;;;;;;;8.59;86.59;99381.25;1724215;82;20988;-75
2022/04/25 00:51:51;;;;;;;16.90;14.07;;;;;;;8.55;86.54;99386.21;1721868;82;20517;-75
2022/04/25 00:54:21;;;;;;;18.00;13.60;;;;;;;8.52;86.68;99386.35;1730805;82;21126;-75
2022/04/25 00:56:49;;;;;;;20.23;14.20;;;;;;;8.49;86.67;99386.03;1727773;82;28287;-75
2022/04/25 00:59:21;;;;;;;18.27;14.37;;;;;;;8.45;86.63;99384.91;1729111;82;21432;-75
2022/04/25 01:01:51;;;;;;;15.27;13.40;;;;;;;8.46;86.84;99390.09;1728661;82;20984;-75
2022/04/25 01:04:19;;;;;;;18.13;13.73;;;;;;;8.44;86.73;99394.52;1730960;82;22326;-75
2022/04/25 01:06:46;;;;;;;21.47;15.33;;;;;;;8.41;86.81;99388.12;1731347;82;21129;-75
2022/04/25 01:09:13;;;;;;;18.10;14.43;;;;;;;8.41;86.85;99388.59;1721134;82;21561;-75
2022/04/25 01:11:40;;;;;;;18.67;14.60;;;;;;;8.39;86.87;99387.80;1734033;82;21382;-75
2022/04/25 01:14:12;;;;;;;18.93;14.23;;;;;;;8.38;86.94;99391.31;1729154;82;21076;-75
2022/04/25 01:16:39;;;;;;;18.13;14.30;;;;;;;8.36;86.95;99389.22;1729098;82;21147;-75
2022/04/25 01:19:06;;;;;;;18.90;14.83;;;;;;;8.31;86.73;99389.41;1730711;82;21072;-75
2022/04/25 01:21:40;;;;;;;20.83;14.90;;;;;;;8.27;86.79;99387.86;1733944;82;21048;-75
2022/04/25 01:29:44;;;;;;;18.80;13.67;;;;;;;8.16;86.97;99383.57;1730235;82;21042;-75
2022/04/25 01:32:12;;;;;;;18.00;14.57;;;;;;;8.14;86.99;99384.08;1726172;82;21102;-76
2022/04/25 01:34:39;;;;;;;21.33;14.53;;;;;;;8.10;87.01;99383.37;1732788;82;21044;-75
2022/04/25 01:37:11;;;;;;;17.23;14.47;;;;;;;8.07;86.89;99382.67;1720806;82;21601;-76
2022/04/25 01:39:42;;;;;;;15.93;13.37;;;;;;;8.03;86.87;99381.47;1721757;82;21037;-76
2022/04/25 01:42:09;;;;;;;18.67;13.37;;;;;;;8.00;87.04;99384.21;1718914;82;21007;-76
2022/04/25 01:44:36;;;;;;;16.80;13.37;;;;;;;7.99;87.00;99381.69;1731087;82;21156;-76
2022/04/25 01:47:05;;;;;;;18.37;13.47;;;;;;;7.95;86.87;99380.10;1730526;82;21646;-75
2022/04/25 01:49:33;;;;;;;18.43;13.73;;;;;;;7.91;86.95;99384.61;1728399;82;21489;-76
2022/04/25 01:52:04;;;;;;;18.80;13.63;;;;;;;7.90;87.08;99382.05;1728270;82;21130;-76
2022/04/25 01:54:32;;;;;;;17.30;12.67;;;;;;;7.90;87.29;99375.53;1707779;82;21492;-76
2022/04/25 01:57:03;;;;;;;19.33;13.07;;;;;;;7.88;87.18;99389.97;1721760;82;21126;-75
2022/04/25 01:59:30;;;;;;;17.13;13.13;;;;;;;7.85;87.11;99391.86;1723306;82;21009;-76
2022/04/25 02:02:00;;;;;;;19.23;13.67;;;;;;;7.79;87.14;99385.98;1726723;82;21028;-76
2022/04/25 02:04:28;;;;;;;17.65;13.40;;;;;;;7.78;87.21;99391.25;1727832;82;21066;-76
2022/04/25 02:06:55;;;;;;;16.53;12.13;;;;;;;7.76;87.23;99392.64;1738258;82;21496;-76
2022/04/25 02:09:23;;;;;;;16.47;12.77;;;;;;;7.75;87.26;99396.59;1726203;82;21094;-76
2022/04/25 02:11:50;;;;;;;17.17;12.80;;;;;;;7.72;87.27;99400.18;1718010;82;21413;-75
2022/04/25 02:14:18;;;;;;;16.20;12.70;;;;;;;7.72;87.33;99401.95;1727771;82;21037;-76
2022/04/25 02:16:46;;;;;;;17.33;13.67;;;;;;;7.70;87.44;99408.52;1729333;82;21032;-76
2022/04/25 02:19:13;;;;;;;15.17;12.53;;;;;;;7.68;87.33;99409.06;1729170;82;21037;-76
2022/04/25 02:21:40;;;;;;;17.37;12.70;;;;;;;7.65;87.32;99406.58;1723853;82;21137;-76
2022/04/25 02:24:07;;;;;;;19.53;14.07;;;;;;;7.64;87.34;99411.38;1721772;82;21015;-75
2022/04/25 02:26:34;;;;;;;14.97;13.30;;;;;;;7.62;87.35;99414.96;1727721;82;21023;-76
2022/04/25 02:29:02;;;;;;;15.93;13.10;;;;;;;7.60;87.41;99409.83;1729679;82;21016;-76
2022/04/25 02:31:29;;;;;;;17.77;13.37;;;;;;;7.56;87.32;99415.59;1732192;82;21083;-75
2022/04/25 02:33:56;;;;;;;16.97;13.47;;;;;;;7.54;87.34;99419.20;1731760;82;21947;-76
2022/04/25 02:36:24;;;;;;;16.47;13.00;;;;;;;7.53;87.35;99418.80;1729345;82;21459;-75
2022/04/25 02:38:51;;;;;;;17.03;13.40;;;;;;;7.49;87.35;99424.59;1723393;82;21099;-76
2022/04/25 02:41:18;;;;;;;17.27;14.23;;;;;;;7.46;87.40;99421.27;1680928;84;21009;-75
2022/04/25 02:43:45;;;;;;;15.50;12.83;;;;;;;7.45;87.50;99418.25;1665318;85;21064;-75
2022/04/25 02:46:15;;;;;;;15.60;12.53;;;;;;;7.43;87.51;99420.94;1727191;82;21096;-76
2022/04/25 02:48:44;;;;;;;18.07;13.20;;;;;;;7.42;87.60;99423.13;1694989;84;26012;-75
2022/04/25 02:51:15;;;;;;;18.27;13.13;;;;;;;7.40;87.62;99423.67;1665497;85;21087;-76
2022/04/25 02:53:43;;;;;;;18.52;13.00;;;;;;;7.38;87.62;99423.72;1668926;84;21083;-75
2022/04/25 02:56:10;;;;;;;19.17;13.53;;;;;;;7.38;87.66;99428.09;1676098;85;21013;-76
2022/04/25 02:58:39;;;;;;;15.97;13.27;;;;;;;7.36;87.62;99418.16;1670823;85;21527;-75
2022/04/25 03:01:07;;;;;;;14.47;12.90;;;;;;;7.33;87.68;99424.34;1662450;85;20967;-76
2022/04/25 03:03:36;;;;;;;17.30;13.40;;;;;;;7.31;87.67;99429.22;1671452;85;21009;-76
2022/04/25 03:06:06;;;;;;;19.20;12.90;;;;;;;7.29;87.62;99432.37;1668998;85;21079;-76
2022/04/25 03:08:37;;;;;;;;;;;;;;;7.26;87.62;99435.06;1665712;85;21011;-76
2022/04/25 03:11:08;;;;;;;19.13;13.40;;;;;;;7.26;87.84;99431.16;1659163;85;21205;-76
2022/04/25 03:13:36;;;;;;;20.93;12.93;;;;;;;7.23;87.78;99431.28;1731055;82;21571;-76
2022/04/25 03:16:05;;;;;;;18.17;12.83;;;;;;;7.22;87.82;99438.25;1727836;82;21123;-76
2022/04/25 03:18:33;;;;;;;15.40;11.83;;;;;;;7.20;87.77;99437.45;1731161;82;21001;-76
2022/04/25 03:21:02;;;;;;;19.10;12.77;;;;;;;7.19;87.75;99442.75;1728931;82;21040;-76
2022/04/25 03:23:29;;;;;;;18.20;11.50;;;;;;;7.16;87.70;99435.89;1730931;82;21193;-76
2022/04/25 03:25:56;;;;;;;16.20;11.10;;;;;;;7.13;87.73;99438.62;1732090;81;20989;-75
2022/04/25 03:28:24;;;;;;;15.90;10.53;;;;;;;7.12;87.71;99437.77;1724849;82;21131;-75
2022/04/25 03:30:51;;;;;;;18.03;11.50;;;;;;;7.10;87.77;99446.09;1728235;82;21019;-76
2022/04/25 03:33:19;;;;;;;14.93;11.03;;;;;;;7.08;87.80;99446.59;1730772;82;21452;-76
2022/04/25 03:35:47;;;;;;;16.80;11.07;;;;;;;7.08;87.88;99444.45;1725407;81;21193;-75
2022/04/25 03:38:17;;;;;;;16.00;11.20;;;;;;;7.07;87.96;99446.67;1725732;82;21013;-75
2022/04/25 03:40:45;;;;;;;18.23;12.07;;;;;;;7.07;87.94;99451.42;1723732;82;26048;-76
2022/04/25 03:43:13;;;;;;;19.90;12.93;;;;;;;7.08;88.07;99449.66;1712311;82;21106;-76
2022/04/25 03:45:44;;;;;;;15.47;11.63;;;;;;;7.09;88.14;99450.05;1723230;82;22286;-75
2022/04/25 03:48:11;;;;;;;17.02;14.43;;;;;;;7.09;88.16;99452.66;1729504;82;21318;-76
2022/04/25 03:50:38;;;;;;;16.10;13.87;;;;;;;7.09;88.27;99460.02;1729142;82;21017;-75
2022/04/25 03:53:12;;;;;;;17.73;13.10;;;;;;;7.11;88.33;99453.45;1694058;84;21490;-76
2022/04/25 03:58:26;;;;;;;16.37;11.87;;;;;;;7.12;88.35;99458.63;1729123;82;21550;-74
2022/04/25 04:00:53;;;;;;;18.73;12.10;;;;;;;7.13;88.29;99462.07;1726931;82;21101;-74
2022/04/25 04:03:20;;;;;;;15.53;11.93;;;;;;;7.12;88.28;99461.66;1731213;82;21020;-75
2022/04/25 04:05:49;;;;;;;21.47;15.90;;;;;;;7.11;88.19;99467.78;1730209;82;21099;-75
2022/04/25 04:08:16;;;;;;;25.57;19.47;;;;;;;7.11;88.33;99471.23;1716077;82;21044;-75
2022/04/25 04:10:43;;;;;;;20.93;15.13;;;;;;;7.11;88.29;99475.14;1730152;82;21306;-75
2022/04/25 04:13:11;;;;;;;36.27;30.90;;;;;;;7.12;88.26;99474.69;1731632;82;21632;-75
2022/04/25 04:15:38;;;;;;;23.93;18.00;;;;;;;7.12;88.33;99477.29;1730440;82;21005;-74
2022/04/25 04:18:05;;;;;;;16.40;11.57;;;;;;;7.13;88.41;99481.61;1729913;82;21030;-75
2022/04/25 04:20:36;;;;;;;22.40;13.80;;;;;;;7.13;88.29;99482.92;1728159;82;21174;-75
2022/04/25 04:23:04;;;;;;;23.07;14.30;;;;;;;7.11;88.17;99489.47;1730443;82;21071;-75
2022/04/25 04:25:32;;;;;;;22.53;13.37;;;;;;;7.09;88.22;99491.28;1731967;82;21923;-75
2022/04/25 04:28:00;;;;;;;18.17;12.23;;;;;;;7.08;88.23;99490.05;1729601;82;21017;-75
2022/04/25 04:30:27;;;;;;;17.47;12.77;;;;;;;7.08;88.18;99503.08;1728849;82;21493;-75
2022/04/25 04:32:54;;;;;;;16.23;11.27;;;;;;;7.07;88.24;99502.70;1685988;83;21021;-75
2022/04/25 04:38:07;;;;;;;22.27;11.80;;;;;;;7.04;88.15;99511.47;1686126;84;21127;-75
2022/04/25 04:40:35;;;;;;;22.23;14.20;;;;;;;7.03;88.25;99519.33;1660729;85;21075;-75
2022/04/25 04:43:03;;;;;;;15.37;11.63;;;;;;;7.02;88.26;99518.48;1673103;85;21576;-77
2022/04/25 04:45:30;;;;;;;17.63;11.47;;;;;;;7.01;88.26;99523.31;1672005;85;21187;-74
2022/04/25 04:47:57;;;;;;;15.87;11.17;;;;;;;7.01;88.29;99531.13;1720328;82;21054;-75
2022/04/25 04:50:24;;;;;;;17.27;10.77;;;;;;;7.01;88.32;99535.04;1706216;83;21851;-75
2022/04/25 04:53:00;;;;;;;14.67;13.03;;;;;;;7.01;88.37;99526.34;1713145;82;21116;-74
2022/04/25 04:55:27;;;;;;;22.57;13.63;;;;;;;7.02;88.33;99531.98;1720328;82;21102;-75
2022/04/25 04:57:55;;;;;;;21.67;12.23;;;;;;;7.01;88.32;99540.25;1723952;82;21022;-76
2022/04/25 05:00:23;;;;;;;18.80;10.70;;;;;;;7.01;88.17;99543.28;1723281;82;21561;-77
2022/04/25 05:02:50;;;;;;;23.60;11.77;;;;;;;7.00;88.29;99542.90;1724723;82;21480;-75
2022/04/25 05:05:18;;;;;;;15.70;10.80;;;;;;;7.01;88.36;99552.40;1733051;82;21059;-75
2022/04/25 05:07:45;;;;;;;33.20;16.37;;;;;;;6.99;88.34;99552.47;1729003;82;21013;-75
2022/04/25 05:10:13;;;;;;;22.60;13.07;;;;;;;7.01;88.32;99555.00;1702925;82;21223;-75
2022/04/25 05:12:57;;;;;;;19.07;11.97;;;;;;;7.00;88.42;99559.83;1719940;82;21106;-75
2022/04/25 05:15:24;;;;;;;14.17;10.20;;;;;;;7.01;88.40;99564.13;1726883;82;21048;-75
2022/04/25 05:17:55;;;;;;;21.63;12.50;;;;;;;6.99;88.31;99562.89;1722693;82;21118;-75
2022/04/25 05:20:23;;;;;;;;;;;;;;;6.99;88.34;99562.89;1733132;82;21470;-75
2022/04/25 05:22:51;;;;;;;22.40;12.80;;;;;;;6.98;88.49;99568.98;1724221;82;20414;-75
2022/04/25 05:25:21;;;;;;;20.17;10.97;;;;;;;6.96;88.37;99568.67;1724541;82;21034;-75
2022/04/25 05:27:52;;;;;;;19.23;10.88;;;;;;;6.96;88.55;99570.83;1730631;82;21110;-75
2022/04/25 05:30:21;;;;;;;17.03;10.17;;;;;;;6.98;88.58;99574.20;1723193;82;21027;-75
2022/04/25 05:32:57;;;;;;;25.57;11.70;;;;;;;6.98;88.49;99578.11;1723478;82;21254;-75
2022/04/25 05:35:26;;;;;;;26.47;13.43;;;;;;;6.98;88.51;99577.27;1685605;82;20928;-75
2022/04/25 05:37:54;;;;;;;26.30;13.47;;;;;;;6.99;88.58;99582.89;1717909;82;21068;-75
2022/04/25 05:40:22;;;;;;;29.10;17.23;;;;;;;6.99;88.52;99588.95;1696434;83;21982;-75
2022/04/25 05:42:51;;;;;;;13.93;10.73;;;;;;;6.98;88.48;99588.53;1700418;83;21040;-75
2022/04/25 05:45:21;;;;;;;16.17;10.67;;;;;;;6.99;88.54;99592.02;1698196;83;21100;-75
2022/04/25 05:47:50;;;;;;;13.70;9.95;;;;;;;6.98;88.46;99585.92;1697450;83;21078;-75
2022/04/25 05:53:06;;;;;;;16.20;10.57;;;;;;;6.98;88.44;99593.74;1698980;83;22375;-75
2022/04/25 05:55:34;;;;;;;19.13;11.40;;;;;;;6.98;88.50;99596.34;1701056;84;20973;-75
2022/04/25 05:58:02;;;;;;;14.00;10.90;;;;;;;6.98;88.45;99601.55;1698441;83;20963;-75
2022/04/25 06:00:33;;;;;;;27.40;16.47;;;;;;;7.02;88.67;99610.14;1691432;84;21056;-75
2022/04/25 06:03:02;;;;;;;24.20;15.37;;;;;;;7.01;88.57;99604.08;1693342;84;21025;-75
2022/04/25 06:05:29;;;;;;;31.43;18.37;;;;;;;7.03;88.63;99611.37;1697750;83;21126;-75
2022/04/25 06:07:56;;;;;;;17.07;12.30;;;;;;;7.05;88.61;99610.03;1699872;83;21042;-74
2022/04/25 06:10:25;;;;;;;24.77;16.10;;;;;;;7.04;88.58;99610.91;1692210;83;21071;-75
2022/04/25 06:12:53;;;;;;;22.87;16.23;;;;;;;7.06;88.50;99616.47;1717773;82;21046;-75
2022/04/25 06:15:26;;;;;;;22.90;14.03;;;;;;;7.05;88.53;99620.45;1703789;84;21073;-75
2022/04/25 06:17:55;;;;;;;16.87;12.17;;;;;;;7.04;88.29;99621.34;1701522;83;21138;-75
2022/04/25 06:20:22;;;;;;;15.80;11.47;;;;;;;7.03;88.35;99619.64;1697122;84;21060;-74
2022/04/25 06:22:58;;;;;;;17.20;12.77;;;;;;;7.04;88.44;99620.03;1696285;83;21536;-74
2022/04/25 06:25:28;;;;;;;18.60;14.20;;;;;;;7.04;88.34;99626.13;1697207;83;21027;-74
2022/04/25 06:28:01;;;;;;;26.40;18.33;;;;;;;7.05;88.59;99626.51;1695812;83;21350;-75
2022/04/25 06:30:28;;;;;;;25.95;17.60;;;;;;;7.04;88.46;99627.42;1699801;83;21148;-76
2022/04/25 06:32:54;;;;;;;19.87;16.07;;;;;;;7.04;88.52;99628.73;1698556;83;21510;-77
2022/04/25 06:35:21;;;;;;;22.03;16.73;;;;;;;7.04;88.40;99633.06;1715924;82;21477;-75
2022/04/25 06:37:49;;;;;;;22.23;16.67;;;;;;;7.03;88.42;99638.73;1725379;82;21038;-74
2022/04/25 06:40:18;;;;;;;19.30;15.07;;;;;;;7.05;88.51;99640.84;1729346;82;21076;-75
2022/04/25 06:42:47;;;;;;;18.57;15.67;;;;;;;7.05;88.44;99640.84;1715062;82;21084;-74
2022/04/25 06:45:15;;;;;;;18.48;15.05;;;;;;;7.03;88.36;99644.40;1720347;82;21043;-74
2022/04/25 06:47:43;;;;;;;17.33;13.73;;;;;;;7.02;88.41;99641.41;1733792;82;21052;-73
2022/04/25 06:50:11;;;;;;;16.37;13.87;;;;;;;7.03;88.47;99643.94;1725874;82;21017;-75
2022/04/25 06:52:38;;;;;;;16.73;12.67;;;;;;;7.04;88.47;99643.48;1725927;81;20995;-75
2022/04/25 06:55:06;;;;;;;15.53;13.73;;;;;;;7.06;88.49;99648.20;1732092;82;21948;-74
2022/04/25 06:57:33;;;;;;;15.80;13.73;;;;;;;7.06;88.45;99648.20;1728525;82;21327;-74
2022/04/25 07:00:08;;;;;;;16.00;12.67;;;;;;;7.05;88.43;99646.51;1729218;82;21028;-74
2022/04/25 07:02:35;;;;;;;15.43;12.83;;;;;;;7.07;88.48;99648.16;1730390;82;21001;-75
2022/04/25 07:05:06;;;;;;;14.30;12.80;;;;;;;7.08;88.50;99653.76;1725119;82;21005;-75
2022/04/25 07:07:33;;;;;;;17.67;13.78;;;;;;;7.10;88.50;99652.41;1730414;82;26914;-76
2022/04/25 07:10:00;;;;;;;15.63;13.33;;;;;;;7.09;88.36;99654.60;1724397;82;21059;-78
2022/04/25 07:12:27;;;;;;;16.40;13.27;;;;;;;7.09;88.40;99654.60;1730237;82;21083;-79
2022/04/25 07:14:54;;;;;;;16.47;13.60;;;;;;;7.10;88.44;99660.23;1726047;82;20998;-77
2022/04/25 07:17:21;;;;;;;15.53;12.67;;;;;;;7.11;88.63;99663.23;1725419;82;21210;-78
2022/04/25 07:19:48;;;;;;;20.20;16.43;;;;;;;7.12;88.54;99657.98;1728909;82;21197;-77
2022/04/25 07:30:31;;;;;;;20.97;16.33;;;;;;;7.14;88.37;99665.27;1725329;82;21123;-78
2022/04/25 07:32:58;;;;;;;22.20;15.20;;;;;;;7.13;88.52;99670.55;1726410;82;21324;-78
2022/04/25 07:35:26;;;;;;;19.23;14.87;;;;;;;7.16;88.60;99667.83;1732347;82;21048;-77
2022/04/25 07:37:55;;;;;;;20.83;15.03;;;;;;;7.16;88.54;99673.05;1731386;82;20968;-77
2022/04/25 07:40:24;;;;;;;19.37;14.07;;;;;;;7.18;88.61;99675.16;1728180;82;21043;-77
2022/04/25 07:42:51;;;;;;;20.17;16.07;;;;;;;7.22;88.71;99678.04;1729176;82;21376;-77
2022/04/25 07:45:18;;;;;;;17.73;14.70;;;;;;;7.23;88.62;99676.28;1727854;82;21903;-76
2022/04/25 07:47:45;;;;;;;15.90;13.23;;;;;;;7.25;88.60;99684.91;1728008;82;21035;-76
2022/04/25 07:50:16;;;;;;;23.60;18.67;;;;;;;7.25;88.48;99688.81;1731642;82;21562;-76
2022/04/25 07:52:43;;;;;;;21.43;17.30;;;;;;;7.25;88.50;99691.42;1730095;82;21472;-77
2022/04/25 07:55:10;;;;;;;33.23;28.27;;;;;;;7.30;88.87;99696.02;1728378;82;21001;-77
2022/04/25 07:57:37;;;;;;;23.13;20.00;;;;;;;7.33;88.81;99699.37;1730328;82;21942;-80
2022/04/25 08:00:07;;;;;;;33.90;27.33;;;;;;;7.37;88.83;99700.10;1730012;82;21066;-77
2022/04/25 08:02:34;;;;;;;24.90;21.77;;;;;;;7.37;88.62;99703.59;1731784;82;21021;-77
2022/04/25 08:05:02;;;;;;;28.30;25.40;;;;;;;7.37;88.56;99706.19;1733319;82;21533;-75
2022/04/25 08:07:30;;;;;;;17.83;15.97;;;;;;;7.41;88.76;99708.69;1727079;82;21133;-78
2022/04/25 08:09:56;;;;;;;17.57;14.30;;;;;;;7.43;88.83;99707.73;1734290;82;21566;-75
2022/04/25 08:17:58;;;;;;;32.83;25.43;;;;;;;7.56;88.84;99718.56;1727200;82;21078;-77
2022/04/25 08:20:29;;;;;;;33.93;23.73;;;;;;;7.60;88.83;99726.23;1728451;82;21319;-77
2022/04/25 08:22:57;;;;;;;37.80;20.53;;;;;;;7.65;88.81;99727.38;1723504;82;21146;-77
2022/04/25 08:25:25;;;;;;;31.83;19.13;;;;;;;7.69;88.79;99725.05;1727350;82;21017;-76
2022/04/25 08:27:52;;;;;;;17.07;13.67;;;;;;;7.73;88.72;99728.39;1728102;82;21057;-75
2022/04/25 08:30:19;;;;;;;15.27;12.13;;;;;;;7.76;88.56;99733.48;1722164;82;21110;-81
2022/04/25 08:32:47;;;;;;;14.00;12.33;;;;;;;7.76;88.42;99737.41;1720968;82;21138;-76
2022/04/25 08:35:14;;;;;;;18.57;13.70;;;;;;;7.76;88.42;99743.50;1720237;82;21291;-76
2022/04/25 08:37:42;;;;;;;18.83;14.17;;;;;;;7.80;88.39;99741.16;1733111;82;21049;-78
2022/04/25 08:40:11;;;;;;;17.57;13.40;;;;;;;7.82;88.36;99748.48;1728846;82;21494;-76
2022/04/25 08:42:38;;;;;;;18.43;13.47;;;;;;;7.85;88.38;99743.62;1730292;82;21009;-76
2022/04/25 08:45:09;;;;;;;18.03;12.87;;;;;;;7.85;88.17;99751.44;1724075;82;21040;-78
2022/04/25 08:47:43;;;;;;;15.78;12.20;;;;;;;7.81;88.03;99746.80;1729896;82;21188;-78
2022/04/25 08:50:11;;;;;;;19.70;15.27;;;;;;;7.85;88.21;99754.05;1726051;82;21410;-76
2022/04/25 08:52:40;;;;;;;21.97;15.77;;;;;;;7.90;88.41;99759.96;1725000;82;21186;-76
2022/04/25 08:55:07;;;;;;;15.70;12.07;;;;;;;7.92;88.20;99759.89;1723133;82;20995;-76
2022/04/25 08:57:38;;;;;;;14.10;11.73;;;;;;;7.93;88.27;99764.22;1726590;82;21179;-86
2022/04/25 09:00:08;;;;;;;14.20;11.57;;;;;;;7.91;88.11;99767.33;1732830;82;21098;-76
2022/04/25 09:02:36;;;;;;;14.18;11.43;;;;;;;7.92;88.15;99769.87;1720225;82;21643;-76
2022/04/25 09:05:05;;;;;;;13.57;11.40;;;;;;;7.92;88.15;99771.63;1716205;82;21545;-76
2022/04/25 09:07:32;;;;;;;15.50;12.63;;;;;;;7.93;88.17;99774.66;1731046;82;21059;-77
2022/04/25 09:10:01;;;;;;;15.10;11.90;;;;;;;7.95;88.24;99780.22;1726609;82;21047;-76
2022/04/25 09:12:28;;;;;;;15.67;13.07;;;;;;;7.97;88.25;99784.06;1726928;82;21802;-81
2022/04/25 09:14:57;;;;;;;14.37;10.67;;;;;;;7.99;88.27;99780.49;1728059;82;21048;-76
2022/04/25 09:17:25;;;;;;;11.60;10.40;;;;;;;7.97;88.00;99785.37;1708403;82;20993;-88
2022/04/25 09:19:55;;;;;;;12.03;10.37;;;;;;;7.96;88.05;99789.74;1728810;82;20949;-79
2022/04/25 09:22:39;;;;;;;11.53;9.47;;;;;;;7.97;88.08;99790.13;1706240;82;21009;-77
2022/04/25 09:25:13;;;;;;;10.20;9.00;;;;;;;7.97;88.02;99795.80;1728367;82;21702;-76
2022/04/25 09:27:41;;;;;;;14.70;11.73;;;;;;;7.98;88.11;99798.80;1725845;82;21007;-76
2022/04/25 09:30:20;;;;;;;14.47;12.10;;;;;;;7.98;88.15;99802.72;1734942;82;21467;-85
2022/04/25 09:32:50;;;;;;;14.63;12.77;;;;;;;7.98;88.27;99803.59;1725679;82;21095;-76
2022/04/25 09:35:40;;;;;;;;;;;;;;;7.99;88.12;99802.67;1730420;82;21503;-76
2022/04/25 09:38:10;;;;;;;17.03;13.53;;;;;;;8.00;88.24;99812.66;1731207;82;20839;-76
2022/04/25 09:40:38;;;;;;;18.70;14.87;;;;;;;7.99;88.19;99805.28;1723764;82;21111;-76
2022/04/25 09:43:16;;;;;;;15.97;13.47;;;;;;;7.99;88.11;99814.42;1731552;82;21072;-76
2022/04/25 09:45:44;;;;;;;21.10;15.77;;;;;;;8.00;88.28;99814.80;1732102;82;21083;-76
2022/04/25 09:48:23;;;;;;;13.10;11.27;;;;;;;8.02;88.26;99820.83;1724115;82;21071;-89
2022/04/25 09:51:09;;;;;;;13.20;11.80;;;;;;;8.03;88.18;99821.22;1728585;82;21125;-76
2022/04/25 09:53:50;;;;;;;13.47;11.07;;;;;;;8.04;88.08;99828.62;1722320;82;21437;-80
2022/04/25 09:56:26;;;;;;;14.37;11.80;;;;;;;8.05;88.21;99831.62;1730614;82;21592;-78
2022/04/25 09:59:10;;;;;;;13.50;11.07;;;;;;;8.04;88.12;99837.75;1725818;82;21028;-80
2022/04/25 10:01:40;;;;;;;12.70;11.37;;;;;;;8.04;88.23;99837.75;1727295;82;21096;-77
2022/04/25 10:04:31;;;;;;;13.80;10.95;;;;;;;8.02;88.15;99840.41;1728582;82;21173;-80
2022/04/25 10:07:01;;;;;;;17.33;13.03;;;;;;;8.02;88.31;99843.02;1727433;82;22184;-85
2022/04/25 10:09:35;;;;;;;17.10;12.82;;;;;;;8.07;88.47;99851.15;1730228;82;21005;-77
2022/04/25 10:12:05;;;;;;;15.57;12.07;;;;;;;8.07;88.49;99853.77;1725026;82;21115;-77
2022/04/25 10:14:32;;;;;;;;;;;;;;;8.10;88.62;99854.50;1726149;82;21407;-82
2022/04/25 10:17:00;;;;;;;15.87;12.53;;;;;;;8.11;88.61;99854.03;1732602;82;21123;-76
2022/04/25 10:19:28;;;;;;;17.13;13.03;;;;;;;8.10;88.45;99857.56;1729487;82;21542;-87
2022/04/25 10:21:57;;;;;;;14.93;11.77;;;;;;;8.10;88.37;99852.34;1725826;82;20985;-84
2022/04/25 10:24:24;;;;;;;12.60;10.60;;;;;;;8.10;88.42;99854.95;1726903;82;21545;-80
2022/04/25 10:26:53;;;;;;;15.50;12.50;;;;;;;8.11;88.57;99861.41;1724522;82;21078;-78
2022/04/25 10:29:28;;;;;;;;;;;;;;;8.16;88.58;99860.80;1727627;82;21964;-86
2022/04/25 10:32:00;;;;;;;13.03;9.83;;;;;;;8.20;88.80;99862.83;1728883;82;20328;-84
2022/04/25 10:34:51;;;;;;;11.43;9.57;;;;;;;8.20;88.63;99860.22;1730385;82;21481;-80
2022/04/25 10:37:38;;;;;;;12.75;9.18;;;;;;;8.22;88.65;99861.03;1730469;82;21719;-82
2022/04/25 10:40:08;;;;;;;15.10;10.37;;;;;;;8.23;88.36;99870.55;1731893;82;21028;-79
2022/04/25 10:45:58;;;;;;;13.93;10.10;;;;;;;8.21;88.42;99876.31;1693229;81;21008;-79
2022/04/25 10:48:27;;;;;;;14.13;9.07;;;;;;;8.27;88.29;99887.37;1726342;82;21108;-79
2022/04/25 10:51:18;;;;;;;12.03;8.97;;;;;;;8.26;88.07;99879.15;1727821;82;21125;-78
2022/04/25 10:54:05;;;;;;;11.63;8.70;;;;;;;8.27;87.97;99883.45;1728104;82;21517;-81
2022/04/25 10:56:35;;;;;;;12.90;9.67;;;;;;;8.28;87.92;99888.22;1725499;82;21163;-80
2022/04/25 10:59:26;;;;;;;12.60;9.13;;;;;;;8.31;88.27;99889.41;1731431;82;21004;-79
2022/04/25 11:01:57;;;;;;;14.07;9.63;;;;;;;8.37;88.41;99902.27;1693954;82;21514;-80
2022/04/25 11:04:25;;;;;;;11.90;9.23;;;;;;;8.43;88.41;99903.84;1731393;82;21097;-79
2022/04/25 11:07:22;;;;;;;11.47;8.93;;;;;;;8.48;88.39;99909.75;1723689;82;21330;-80
2022/04/25 11:09:49;;;;;;;12.13;8.87;;;;;;;8.51;88.27;99907.03;1713366;82;21155;-79
2022/04/25 11:12:17;;;;;;;16.63;9.80;;;;;;;8.52;88.07;99914.41;1717234;82;21070;-80
2022/04/25 11:15:00;;;;;;;14.83;9.30;;;;;;;8.52;88.09;99915.71;1730659;82;20941;-80
2022/04/25 11:17:27;;;;;;;15.80;10.40;;;;;;;8.51;87.94;99920.52;1722823;82;20976;-79
2022/04/25 11:19:55;;;;;;;16.70;9.87;;;;;;;8.47;87.79;99918.02;1726153;82;21040;-79
2022/04/25 11:22:39;;;;;;;14.90;10.87;;;;;;;8.51;88.04;99924.44;1722506;82;21118;-79
2022/04/25 11:25:31;;;;;;;19.63;11.23;;;;;;;8.52;88.06;99932.23;1727785;82;20969;-79
2022/04/25 11:28:08;;;;;;;17.33;10.83;;;;;;;8.56;88.18;99931.19;1731653;82;21001;-80
2022/04/25 11:30:36;;;;;;;14.87;10.17;;;;;;;8.62;88.40;99936.68;1727885;82;21047;-79
2022/04/25 11:33:05;;;;;;;16.00;10.60;;;;;;;8.63;88.29;99935.77;1724940;82;21812;-79
2022/04/25 11:35:33;;;;;;;15.28;9.88;;;;;;;8.70;88.45;99936.80;1727924;82;21122;-80
2022/04/25 11:38:01;;;;;;;11.83;8.57;;;;;;;8.80;88.58;99938.59;1728153;82;20990;-87
2022/04/25 11:40:28;;;;;;;13.87;9.73;;;;;;;8.88;88.42;99943.55;1728181;82;21043;-82
2022/04/25 11:42:56;;;;;;;11.53;10.30;;;;;;;8.94;88.28;99945.47;1731598;82;21064;-82
2022/04/25 11:45:23;;;;;;;11.03;9.03;;;;;;;9.01;88.16;99949.18;1725368;82;21123;-80
2022/04/25 11:47:50;;;;;;;12.50;8.03;;;;;;;9.05;87.96;99949.45;1726097;82;22047;-82
2022/04/25 11:50:20;;;;;;;10.57;8.60;;;;;;;9.11;87.87;99957.89;1722464;82;21104;-84
2022/04/25 11:52:51;;;;;;;13.93;9.87;;;;;;;9.18;87.79;99956.37;1727795;82;21593;-76
2022/04/25 11:57:57;;;;;;;11.97;9.33;;;;;;;9.31;87.56;99961.50;1721334;81;21658;-77
2022/04/25 12:00:24;;;;;;;12.77;8.30;;;;;;;9.41;87.65;99956.32;1716719;82;21075;-77
2022/04/25 12:02:51;;;;;;;10.70;8.73;;;;;;;9.51;87.38;99960.29;1729368;82;21059;-76
2022/04/25 12:05:28;;;;;;;11.90;7.93;;;;;;;9.61;87.49;99957.68;1724869;82;21465;-76
2022/04/25 12:16:14;;;;;;;11.07;6.50;;;;;;;9.96;86.81;99965.88;1727563;82;21000;-79
2022/04/25 12:18:52;;;;;;;9.97;6.97;;;;;;;9.98;86.58;99967.13;1719394;82;21000;-79
2022/04/25 12:21:20;;;;;;;9.87;6.57;;;;;;;9.96;86.56;99971.11;1728791;82;20957;-78